Time;durP1;ratioP1;P1;durP2;ratioP2;P2;SDS_P1;SDS_P2;PMS_P1;PMS_P2;Temp;Humidity;BMP_temperature;BMP_pressure;BME280_temperature;BME280_humidity;BME280_pressure;Samples;Min_cycle;Max_cycle;Signal;HPM_P1;HPM_P2
2023/12/27 00:00:33;;;;;;;0.00;0.00;;;21.50;53.60;;;;;;5093917;28;20237;-44
2023/12/27 00:03:04;;;;;;;0.10;0.10;;;21.50;53.50;;;;;;5094426;28;20194;-44
2023/12/27 00:05:35;;;;;;;0.03;0.03;;;21.50;53.50;;;;;;5093729;28;20221;-43
2023/12/27 00:08:07;;;;;;;0.00;0.00;;;21.50;53.50;;;;;;5093783;28;20280;-43
2023/12/27 00:10:38;;;;;;;0.10;0.10;;;21.50;53.50;;;;;;5092984;28;20190;-43
2023/12/27 00:13:12;;;;;;;0.00;0.00;;;21.50;53.40;;;;;;5093681;28;20561;-42
2023/12/27 00:15:45;;;;;;;0.10;0.10;;;21.60;53.40;;;;;;5093889;28;20214;-45
2023/12/27 00:18:17;;;;;;;0.00;0.00;;;21.50;53.30;;;;;;5093870;28;20194;-44
2023/12/27 00:20:49;;;;;;;0.10;0.10;;;21.60;53.40;;;;;;5093798;28;20316;-49
2023/12/27 00:23:22;;;;;;;0.00;0.00;;;21.60;53.30;;;;;;5093802;28;20198;-45
2023/12/27 00:25:52;;;;;;;0.00;0.00;;;21.60;53.20;;;;;;5093205;28;20221;-43
2023/12/27 00:28:23;;;;;;;0.00;0.00;;;21.60;53.80;;;;;;5093829;28;20292;-43
2023/12/27 00:30:54;;;;;;;0.10;0.10;;;21.60;53.20;;;;;;5093341;28;20205;-46
2023/12/27 00:33:24;;;;;;;0.10;0.10;;;21.60;53.20;;;;;;5093265;28;20209;-48
2023/12/27 00:35:56;;;;;;;0.10;0.10;;;21.60;53.20;;;;;;5093022;28;20686;-46
2023/12/27 00:38:28;;;;;;;0.10;0.10;;;21.60;53.20;;;;;;5093160;28;20202;-46
2023/12/27 00:40:59;;;;;;;0.00;0.00;;;21.60;53.10;;;;;;5093200;28;20259;-42
2023/12/27 00:43:30;;;;;;;0.00;0.00;;;21.60;53.10;;;;;;5093478;28;20194;-46
2023/12/27 00:46:00;;;;;;;0.03;0.03;;;21.60;53.10;;;;;;5093299;28;20214;-45
2023/12/27 00:48:31;;;;;;;0.10;0.10;;;21.60;53.00;;;;;;5093602;28;20668;-45
2023/12/27 00:51:02;;;;;;;0.00;0.00;;;21.60;53.00;;;;;;5092742;28;20197;-45
2023/12/27 00:53:35;;;;;;;0.10;0.10;;;21.60;53.00;;;;;;5092499;28;20197;-48
2023/12/27 00:56:05;;;;;;;0.00;0.00;;;21.60;53.00;;;;;;5092325;28;20222;-43
2023/12/27 00:58:36;;;;;;;0.00;0.00;;;21.60;52.90;;;;;;5092825;28;20197;-44
2023/12/27 01:01:07;;;;;;;0.10;0.10;;;21.60;52.90;;;;;;5092222;28;20222;-45
2023/12/27 01:03:37;;;;;;;0.00;0.00;;;21.70;52.80;;;;;;5092131;28;20258;-42
2023/12/27 01:06:10;;;;;;;0.10;0.10;;;21.70;52.80;;;;;;5092718;28;20221;-46
2023/12/27 01:08:42;;;;;;;0.00;0.00;;;21.60;52.80;;;;;;5092973;28;20570;-43
2023/12/27 01:11:13;;;;;;;0.00;0.00;;;21.70;52.70;;;;;;5092592;28;20665;-42
2023/12/27 01:13:44;;;;;;;0.10;0.10;;;21.60;52.60;;;;;;5092909;28;20494;-46
2023/12/27 01:16:15;;;;;;;0.00;0.00;;;21.70;52.70;;;;;;5092745;28;20220;-46
2023/12/27 01:18:46;;;;;;;0.00;0.00;;;21.70;52.70;;;;;;5092884;28;20194;-48
2023/12/27 01:21:16;;;;;;;0.00;0.00;;;21.70;52.70;;;;;;5091546;28;20597;-44
2023/12/27 01:23:49;;;;;;;0.10;0.10;;;21.70;52.70;;;;;;5092210;28;20198;-48
2023/12/27 01:26:20;;;;;;;0.00;0.00;;;21.70;52.60;;;;;;5092222;28;20221;-46
2023/12/27 01:28:50;;;;;;;0.10;0.10;;;21.70;52.60;;;;;;5092343;28;20194;-48
2023/12/27 01:31:21;;;;;;;0.00;0.00;;;21.70;52.60;;;;;;5092506;28;20206;-47
2023/12/27 01:33:52;;;;;;;0.00;0.00;;;21.70;52.60;;;;;;5092273;28;20570;-45
2023/12/27 01:36:23;;;;;;;0.00;0.00;;;21.70;52.50;;;;;;5092298;28;20581;-47
2023/12/27 01:38:56;;;;;;;0.00;0.00;;;21.70;52.50;;;;;;5092370;28;20204;-45
2023/12/27 01:41:26;;;;;;;0.10;0.10;;;21.70;52.50;;;;;;5091912;28;20226;-47
2023/12/27 01:43:57;;;;;;;0.00;0.00;;;21.70;52.50;;;;;;5092191;28;20201;-45
2023/12/27 01:46:28;;;;;;;0.00;0.00;;;21.70;52.50;;;;;;5092253;28;20218;-47
2023/12/27 01:48:59;;;;;;;0.10;0.10;;;21.70;52.40;;;;;;5092726;28;20201;-46
2023/12/27 01:51:30;;;;;;;0.00;0.00;;;21.70;52.40;;;;;;5091750;28;20665;-44
2023/12/27 01:54:03;;;;;;;0.00;0.00;;;21.70;52.50;;;;;;5092195;28;20202;-44
2023/12/27 01:56:34;;;;;;;0.00;0.00;;;21.70;52.40;;;;;;5092004;28;20563;-44
2023/12/27 01:59:05;;;;;;;0.03;0.03;;;21.70;52.40;;;;;;5092309;28;20362;-44
2023/12/27 02:01:36;;;;;;;0.00;0.00;;;21.70;52.30;;;;;;5091884;28;20247;-48
2023/12/27 02:04:07;;;;;;;0.00;0.00;;;21.70;52.40;;;;;;5091975;28;20195;-48
2023/12/27 02:06:38;;;;;;;0.10;0.10;;;21.70;52.30;;;;;;5091909;28;20222;-47
2023/12/27 02:09:11;;;;;;;0.00;0.00;;;21.70;52.30;;;;;;5071797;28;20210;-48
2023/12/27 02:11:42;;;;;;;0.03;0.03;;;21.70;52.30;;;;;;5071402;28;20199;-41
2023/12/27 02:14:12;;;;;;;0.03;0.03;;;21.70;52.30;;;;;;5071742;28;20194;-41
2023/12/27 02:16:44;;;;;;;0.00;0.00;;;21.70;52.30;;;;;;5083858;28;20213;-46
2023/12/27 02:19:21;;;;;;;0.00;0.00;;;21.70;52.30;;;;;;5091584;28;20196;-45
2023/12/27 02:21:53;;;;;;;0.00;0.00;;;21.80;52.30;;;;;;5091743;28;20225;-43
2023/12/27 02:24:29;;;;;;;0.00;0.00;;;21.80;52.30;;;;;;5091486;28;20194;-45
2023/12/27 02:27:01;;;;;;;0.00;0.00;;;21.80;52.30;;;;;;5091188;28;20198;-42
2023/12/27 02:29:32;;;;;;;0.00;0.00;;;21.80;52.20;;;;;;5090868;28;20194;-41
2023/12/27 02:32:03;;;;;;;0.05;0.05;;;21.80;52.20;;;;;;5091442;28;20198;-45
2023/12/27 02:34:34;;;;;;;0.00;0.00;;;21.80;52.20;;;;;;5095032;28;20210;-42
2023/12/27 02:37:05;;;;;;;0.08;0.08;;;21.80;52.10;;;;;;5096001;28;20198;-43
2023/12/27 02:39:35;;;;;;;0.00;0.00;;;21.80;52.20;;;;;;5095841;28;20198;-42
2023/12/27 02:42:08;;;;;;;0.08;0.08;;;21.80;52.10;;;;;;5095676;28;20802;-43
2023/12/27 02:44:39;;;;;;;0.03;0.03;;;21.80;52.10;;;;;;5095771;28;20201;-43
2023/12/27 02:47:10;;;;;;;0.00;0.00;;;21.80;52.10;;;;;;5095858;28;20205;-46
2023/12/27 02:49:40;;;;;;;0.00;0.00;;;21.80;52.10;;;;;;5095405;28;20205;-43
2023/12/27 02:52:11;;;;;;;0.00;0.00;;;21.80;52.00;;;;;;5095279;28;20190;-43
2023/12/27 02:54:42;;;;;;;0.03;0.03;;;21.80;52.00;;;;;;5095106;28;20190;-46
2023/12/27 02:57:14;;;;;;;0.03;0.03;;;21.80;52.00;;;;;;5095048;28;20277;-46
2023/12/27 02:59:45;;;;;;;0.00;0.00;;;21.80;52.00;;;;;;5095300;28;20191;-45
2023/12/27 03:02:16;;;;;;;0.00;0.00;;;21.80;52.00;;;;;;5095133;28;20225;-43
2023/12/27 03:04:46;;;;;;;0.00;0.00;;;21.80;52.00;;;;;;5094898;28;20225;-45
2023/12/27 03:07:17;;;;;;;0.10;0.10;;;21.70;51.90;;;;;;5093893;28;20194;-44
2023/12/27 03:09:48;;;;;;;0.00;0.00;;;21.80;51.90;;;;;;5095224;28;20194;-43
2023/12/27 03:12:20;;;;;;;0.10;0.10;;;21.80;51.90;;;;;;5095040;28;20190;-43
2023/12/27 03:14:52;;;;;;;0.00;0.00;;;21.70;51.80;;;;;;5095153;28;20218;-47
2023/12/27 03:17:22;;;;;;;0.00;0.00;;;21.80;51.90;;;;;;5094912;28;20194;-49
2023/12/27 03:19:53;;;;;;;0.00;0.00;;;21.80;51.80;;;;;;5094807;28;20198;-49
2023/12/27 03:22:24;;;;;;;0.00;0.00;;;21.80;51.80;;;;;;5094632;28;20233;-47
2023/12/27 03:24:54;;;;;;;0.00;0.00;;;21.80;51.80;;;;;;5094711;28;20214;-49
2023/12/27 03:27:27;;;;;;;0.10;0.10;;;21.80;51.80;;;;;;5094601;28;20247;-47
2023/12/27 03:29:58;;;;;;;0.00;0.00;;;21.70;51.70;;;;;;5094429;28;20198;-47
2023/12/27 03:32:28;;;;;;;0.00;0.00;;;21.80;51.70;;;;;;5094845;28;20201;-46
2023/12/27 03:34:59;;;;;;;0.00;0.00;;;21.70;51.70;;;;;;5094259;28;20228;-46
2023/12/27 03:37:30;;;;;;;0.05;0.05;;;21.80;51.70;;;;;;5094233;28;20202;-48
2023/12/27 03:40:00;;;;;;;0.00;0.00;;;21.70;51.70;;;;;;5093169;28;20194;-42
2023/12/27 03:42:33;;;;;;;0.00;0.00;;;21.80;51.70;;;;;;5094168;28;20225;-46
2023/12/27 03:45:04;;;;;;;0.00;0.00;;;21.70;51.60;;;;;;5076353;28;20686;-46
2023/12/27 03:47:35;;;;;;;0.00;0.00;;;21.70;51.60;;;;;;5088277;28;20269;-45
2023/12/27 03:50:05;;;;;;;0.00;0.00;;;21.80;51.70;;;;;;5093749;28;20194;-47
2023/12/27 03:52:36;;;;;;;0.00;0.00;;;21.70;52.30;;;;;;5094430;28;20194;-46
2023/12/27 03:55:08;;;;;;;0.00;0.00;;;21.80;51.70;;;;;;5093792;28;20218;-46
2023/12/27 03:57:40;;;;;;;0.00;0.00;;;21.80;51.70;;;;;;5093638;28;20200;-49
2023/12/27 04:00:12;;;;;;;0.00;0.00;;;21.80;51.70;;;;;;5093720;28;20194;-48
2023/12/27 04:02:43;;;;;;;0.00;0.00;;;21.70;51.70;;;;;;5093916;28;20221;-47
2023/12/27 04:05:14;;;;;;;0.00;0.00;;;21.70;51.70;;;;;;5091274;28;20210;-49
2023/12/27 04:07:44;;;;;;;0.03;0.03;;;21.70;51.70;;;;;;5093775;28;20207;-46
2023/12/27 04:10:15;;;;;;;0.05;0.05;;;21.80;51.70;;;;;;5093673;28;20194;-49
2023/12/27 04:12:48;;;;;;;0.00;0.00;;;21.80;51.70;;;;;;5093268;28;20646;-45
2023/12/27 04:15:18;;;;;;;0.10;0.10;;;21.80;51.70;;;;;;5093142;28;20707;-46
2023/12/27 04:17:49;;;;;;;0.00;0.00;;;21.70;51.70;;;;;;5093079;28;20190;-46
2023/12/27 04:20:20;;;;;;;0.00;0.00;;;21.70;51.60;;;;;;5092829;28;20190;-48
2023/12/27 04:22:50;;;;;;;0.00;0.00;;;21.80;51.70;;;;;;5092961;28;20229;-48
2023/12/27 04:25:21;;;;;;;0.03;0.03;;;21.80;51.70;;;;;;5093394;28;20607;-45
2023/12/27 04:27:54;;;;;;;0.03;0.03;;;21.80;51.70;;;;;;5093162;28;20197;-47
2023/12/27 04:30:24;;;;;;;0.00;0.00;;;21.70;51.60;;;;;;5092863;28;20190;-46
2023/12/27 04:32:57;;;;;;;0.00;0.00;;;21.80;51.60;;;;;;5093148;28;20268;-47
2023/12/27 04:35:27;;;;;;;0.05;0.05;;;21.70;51.50;;;;;;5092172;28;20249;-50
2023/12/27 04:37:59;;;;;;;0.03;0.03;;;21.70;51.50;;;;;;5092683;28;20566;-46
2023/12/27 04:40:29;;;;;;;0.10;0.10;;;21.70;51.50;;;;;;5093040;28;20248;-46
2023/12/27 04:43:02;;;;;;;0.00;0.00;;;21.70;51.50;;;;;;5092813;28;20217;-42
2023/12/27 04:45:33;;;;;;;0.00;0.00;;;21.70;51.50;;;;;;5092865;28;20693;-45
2023/12/27 04:48:04;;;;;;;0.00;0.00;;;21.70;51.50;;;;;;5093579;28;20198;-47
2023/12/27 04:50:34;;;;;;;0.03;0.03;;;21.70;51.50;;;;;;5092713;28;20186;-46
2023/12/27 04:53:05;;;;;;;0.10;0.10;;;21.70;51.50;;;;;;5093055;28;20573;-47
2023/12/27 04:55:36;;;;;;;0.00;0.00;;;21.70;51.50;;;;;;5092553;28;20222;-46
2023/12/27 04:58:08;;;;;;;0.00;0.00;;;21.70;51.50;;;;;;5091649;28;20190;-48
2023/12/27 05:00:39;;;;;;;0.10;0.10;;;21.70;51.50;;;;;;5091521;28;20194;-46
2023/12/27 05:03:10;;;;;;;0.00;0.00;;;21.70;51.50;;;;;;5091515;28;20228;-43
2023/12/27 05:05:41;;;;;;;0.00;0.00;;;21.70;51.50;;;;;;5092328;28;20214;-46
2023/12/27 05:08:12;;;;;;;0.00;0.00;;;21.70;51.50;;;;;;5092445;28;20202;-46
2023/12/27 05:10:43;;;;;;;0.00;0.00;;;21.70;51.50;;;;;;5092429;28;20709;-43
2023/12/27 05:13:15;;;;;;;0.05;0.05;;;21.70;51.50;;;;;;5091866;28;20198;-47
2023/12/27 05:15:46;;;;;;;0.00;0.00;;;21.70;51.50;;;;;;5092585;28;20214;-49
2023/12/27 05:18:17;;;;;;;0.00;0.00;;;21.70;51.50;;;;;;5091642;28;20198;-47
2023/12/27 05:20:48;;;;;;;0.00;0.00;;;21.60;51.50;;;;;;5092308;28;20194;-45
2023/12/27 05:23:18;;;;;;;0.00;0.00;;;21.70;51.60;;;;;;5092386;28;20228;-49
2023/12/27 05:25:49;;;;;;;0.00;0.00;;;21.70;51.50;;;;;;5092319;28;20226;-46
2023/12/27 05:28:22;;;;;;;0.10;0.10;;;21.60;51.50;;;;;;5091875;28;20653;-44
2023/12/27 05:30:53;;;;;;;0.10;0.10;;;21.60;51.50;;;;;;5091964;28;20267;-45
2023/12/27 05:33:24;;;;;;;0.03;0.03;;;21.60;51.50;;;;;;5091424;28;20206;-42
2023/12/27 05:35:55;;;;;;;0.00;0.00;;;21.70;51.50;;;;;;5091576;28;20226;-45
2023/12/27 05:38:25;;;;;;;0.10;0.10;;;21.70;51.50;;;;;;5091482;28;20198;-45
2023/12/27 05:40:56;;;;;;;0.00;0.00;;;21.70;51.50;;;;;;5092087;28;20210;-44
2023/12/27 05:43:29;;;;;;;0.10;0.10;;;21.60;51.50;;;;;;5091871;28;20218;-44
2023/12/27 05:46:00;;;;;;;0.03;0.03;;;21.70;51.50;;;;;;5091595;28;20557;-42
2023/12/27 05:48:30;;;;;;;0.10;0.10;;;21.60;51.50;;;;;;5091259;28;20202;-45
2023/12/27 05:51:01;;;;;;;0.00;0.00;;;21.60;51.50;;;;;;5091515;28;20271;-48
2023/12/27 05:53:32;;;;;;;0.10;0.10;;;21.60;51.50;;;;;;5091286;28;20194;-41
2023/12/27 05:56:03;;;;;;;0.00;0.00;;;21.60;51.50;;;;;;5091482;28;20210;-47
2023/12/27 05:58:35;;;;;;;0.00;0.00;;;21.60;51.50;;;;;;5091556;28;20217;-46
2023/12/27 06:01:09;;;;;;;0.10;0.10;;;21.60;51.50;;;;;;5091966;28;20198;-47
2023/12/27 06:03:39;;;;;;;0.00;0.00;;;21.60;51.50;;;;;;5091064;28;20222;-46
2023/12/27 06:06:10;;;;;;;0.00;0.00;;;21.60;51.50;;;;;;5091323;28;20218;-45
2023/12/27 06:08:41;;;;;;;0.00;0.00;;;21.60;51.50;;;;;;5090225;28;20589;-44
2023/12/27 06:11:12;;;;;;;0.00;0.00;;;21.60;51.50;;;;;;5092039;28;20201;-47
2023/12/27 06:13:44;;;;;;;0.10;0.10;;;21.60;51.50;;;;;;5091801;28;20269;-44
2023/12/27 06:16:15;;;;;;;0.00;0.00;;;21.60;51.50;;;;;;5091745;28;20210;-44
2023/12/27 06:18:46;;;;;;;0.10;0.10;;;21.60;51.50;;;;;;5090380;28;20194;-45
2023/12/27 06:21:16;;;;;;;0.00;0.00;;;21.60;51.50;;;;;;5091819;28;20201;-45
2023/12/27 06:23:47;;;;;;;0.10;0.10;;;21.60;51.60;;;;;;5090547;28;20222;-42
2023/12/27 06:26:18;;;;;;;0.00;0.00;;;21.60;51.60;;;;;;5091359;28;20214;-45
2023/12/27 06:28:50;;;;;;;0.10;0.10;;;21.60;51.60;;;;;;5090939;28;20205;-43
2023/12/27 06:31:21;;;;;;;0.00;0.00;;;21.60;51.70;;;;;;5090808;28;20569;-42
2023/12/27 06:33:52;;;;;;;0.10;0.10;;;21.60;51.70;;;;;;5090472;28;20194;-47
2023/12/27 06:36:22;;;;;;;0.00;0.00;;;21.60;51.70;;;;;;5091298;28;20225;-45
2023/12/27 06:38:53;;;;;;;0.00;0.00;;;21.60;51.70;;;;;;5091226;28;20205;-45
2023/12/27 06:41:24;;;;;;;0.10;0.10;;;21.60;51.80;;;;;;5091302;28;20202;-45
2023/12/27 06:43:56;;;;;;;0.00;0.00;;;21.60;51.80;;;;;;5091452;28;20218;-45
2023/12/27 06:46:27;;;;;;;0.00;0.00;;;21.60;51.80;;;;;;5090856;28;20221;-42
2023/12/27 06:48:58;;;;;;;0.10;0.10;;;21.60;51.90;;;;;;5090395;28;20553;-44
2023/12/27 06:51:29;;;;;;;0.00;0.00;;;21.60;51.90;;;;;;5089907;28;20354;-43
2023/12/27 06:53:59;;;;;;;0.00;0.00;;;21.60;51.90;;;;;;5090817;28;20198;-41
2023/12/27 06:56:30;;;;;;;0.00;0.00;;;21.60;51.90;;;;;;5091095;28;20587;-43
2023/12/27 06:59:03;;;;;;;0.00;0.00;;;21.60;51.90;;;;;;5091278;28;20198;-41
2023/12/27 07:01:33;;;;;;;0.10;0.10;;;21.60;52.00;;;;;;5091300;28;20314;-42
2023/12/27 07:04:04;;;;;;;0.00;0.00;;;21.60;52.40;;;;;;5090630;28;20221;-42
2023/12/27 07:06:35;;;;;;;0.00;0.00;;;21.60;52.40;;;;;;5090849;28;20267;-46
2023/12/27 07:09:07;;;;;;;0.00;0.00;;;21.60;52.40;;;;;;5070930;28;20210;-43
2023/12/27 07:11:37;;;;;;;0.10;0.10;;;21.60;52.40;;;;;;5070453;28;20519;-46
2023/12/27 07:14:11;;;;;;;0.00;0.00;;;21.60;52.30;;;;;;5070228;28;20627;-44
2023/12/27 07:16:41;;;;;;;0.00;0.00;;;21.60;52.30;;;;;;5070304;28;20225;-46
2023/12/27 07:19:15;;;;;;;0.10;0.10;;;21.60;52.30;;;;;;5071647;28;20654;-41
2023/12/27 07:21:46;;;;;;;0.00;0.00;;;21.60;52.40;;;;;;5074358;28;20190;-41
2023/12/27 07:24:17;;;;;;;0.03;0.03;;;21.60;52.40;;;;;;5074323;28;20662;-43
2023/12/27 07:26:47;;;;;;;0.10;0.10;;;21.60;52.40;;;;;;5074244;28;20219;-44
2023/12/27 07:29:20;;;;;;;0.10;0.10;;;21.60;52.50;;;;;;5074077;28;20191;-45
2023/12/27 07:31:52;;;;;;;0.00;0.00;;;21.60;52.50;;;;;;5073289;28;20686;-43
2023/12/27 07:34:23;;;;;;;0.00;0.00;;;21.60;52.50;;;;;;5074069;28;20260;-48
2023/12/27 07:36:53;;;;;;;0.10;0.10;;;21.60;52.50;;;;;;5076475;28;20229;-48
2023/12/27 07:39:24;;;;;;;0.10;0.10;;;21.60;52.50;;;;;;5094597;28;20225;-46
2023/12/27 07:41:55;;;;;;;0.00;0.00;;;21.60;52.50;;;;;;5093994;28;20688;-46
2023/12/27 07:44:28;;;;;;;0.10;0.10;;;21.60;52.50;;;;;;5093862;28;20201;-46
2023/12/27 07:46:59;;;;;;;0.00;0.00;;;21.60;52.60;;;;;;5092875;28;20202;-48
2023/12/27 07:49:30;;;;;;;0.00;0.00;;;21.60;52.50;;;;;;5094309;28;20574;-49
2023/12/27 07:52:00;;;;;;;0.00;0.00;;;21.60;52.60;;;;;;5092860;28;20202;-45
2023/12/27 07:54:31;;;;;;;0.10;0.10;;;21.60;52.50;;;;;;5090743;28;20205;-48
2023/12/27 07:57:02;;;;;;;0.10;0.10;;;21.60;52.90;;;;;;5093589;28;20194;-44
2023/12/27 07:59:34;;;;;;;0.00;0.00;;;21.60;53.00;;;;;;5093226;28;20201;-48
2023/12/27 08:02:05;;;;;;;0.05;0.05;;;21.60;53.00;;;;;;5093417;28;20198;-43
2023/12/27 08:04:36;;;;;;;0.10;0.10;;;21.60;52.90;;;;;;5092894;28;20563;-46
2023/12/27 08:07:07;;;;;;;0.00;0.00;;;21.60;52.80;;;;;;5093864;28;20198;-45
2023/12/27 08:09:37;;;;;;;0.00;0.00;;;21.60;52.80;;;;;;5091003;28;20220;-48
2023/12/27 08:12:08;;;;;;;0.00;0.00;;;21.60;52.80;;;;;;5093097;28;20197;-48
2023/12/27 08:14:41;;;;;;;0.10;0.10;;;21.60;52.80;;;;;;5090924;28;20194;-48
2023/12/27 08:17:12;;;;;;;0.00;0.00;;;21.60;52.80;;;;;;5092966;28;20195;-45
2023/12/27 08:19:42;;;;;;;0.00;0.00;;;21.60;52.70;;;;;;5093656;28;20194;-47
2023/12/27 08:22:13;;;;;;;0.00;0.00;;;21.60;52.70;;;;;;5092314;28;20193;-46
2023/12/27 08:24:44;;;;;;;0.00;0.00;;;21.60;52.70;;;;;;5072186;28;20205;-50
2023/12/27 08:27:15;;;;;;;0.00;0.00;;;21.60;52.70;;;;;;5072598;28;20225;-46
2023/12/27 08:29:47;;;;;;;0.10;0.10;;;21.50;52.60;;;;;;5073039;28;20241;-48
2023/12/27 08:32:18;;;;;;;0.10;0.10;;;21.50;52.60;;;;;;5071015;28;20203;-49
2023/12/27 08:34:49;;;;;;;0.10;0.10;;;21.60;52.60;;;;;;5072164;28;20231;-45
2023/12/27 08:37:25;;;;;;;0.10;0.10;;;21.60;52.60;;;;;;5081802;28;20190;-44
2023/12/27 08:39:56;;;;;;;0.10;0.10;;;21.50;52.50;;;;;;5092167;28;20574;-45
2023/12/27 08:42:27;;;;;;;0.10;0.10;;;21.50;52.50;;;;;;5071238;28;20552;-43
2023/12/27 08:44:59;;;;;;;0.00;0.00;;;21.50;52.50;;;;;;5073824;28;20219;-44
2023/12/27 08:47:30;;;;;;;0.00;0.00;;;21.50;52.50;;;;;;5091842;28;20214;-47
2023/12/27 08:50:01;;;;;;;0.00;0.00;;;21.50;52.50;;;;;;5091872;28;20194;-46
2023/12/27 08:52:31;;;;;;;0.00;0.00;;;21.50;52.50;;;;;;5092639;28;20288;-48
2023/12/27 08:55:02;;;;;;;0.00;0.00;;;21.50;52.50;;;;;;5092144;28;20214;-43
2023/12/27 08:57:33;;;;;;;0.00;0.00;;;21.50;52.50;;;;;;5092256;28;20453;-43
2023/12/27 09:00:07;;;;;;;0.08;0.08;;;21.50;52.50;;;;;;5092463;28;20202;-45
2023/12/27 09:02:38;;;;;;;0.00;0.00;;;21.50;52.50;;;;;;5090497;28;20198;-49
2023/12/27 09:05:10;;;;;;;0.00;0.00;;;21.50;52.50;;;;;;5091857;28;20218;-42
2023/12/27 09:07:41;;;;;;;0.00;0.00;;;21.50;52.50;;;;;;5091700;28;20252;-48
2023/12/27 09:10:12;;;;;;;0.00;0.00;;;21.50;52.50;;;;;;5091399;28;20567;-45
2023/12/27 09:12:44;;;;;;;0.00;0.00;;;21.50;52.50;;;;;;5091817;28;20248;-46
2023/12/27 09:15:17;;;;;;;0.00;0.00;;;21.50;52.50;;;;;;5092379;28;20230;-49
2023/12/27 09:17:48;;;;;;;0.05;0.05;;;21.40;52.50;;;;;;5070417;28;20198;-48
2023/12/27 09:20:18;;;;;;;0.00;0.00;;;21.50;52.50;;;;;;5071338;28;20210;-44
2023/12/27 09:22:49;;;;;;;0.00;0.00;;;21.50;52.60;;;;;;5070964;28;20738;-43
2023/12/27 09:25:20;;;;;;;0.00;0.00;;;21.50;52.50;;;;;;5071293;28;20215;-42
2023/12/27 09:27:51;;;;;;;0.03;0.03;;;21.50;52.50;;;;;;5070681;28;20194;-43
2023/12/27 09:30:23;;;;;;;0.10;0.10;;;21.40;52.50;;;;;;5084562;28;20201;-44
2023/12/27 09:32:54;;;;;;;0.00;0.00;;;21.50;52.50;;;;;;5091940;28;20202;-47
2023/12/27 09:35:25;;;;;;;0.00;0.00;;;21.50;52.50;;;;;;5090816;28;20222;-45
2023/12/27 09:37:55;;;;;;;0.00;0.00;;;21.50;52.50;;;;;;5091606;28;20202;-46
2023/12/27 09:40:26;;;;;;;0.05;0.05;;;21.50;52.50;;;;;;5090761;28;20723;-43
2023/12/27 09:42:58;;;;;;;0.00;0.00;;;21.50;52.50;;;;;;5089737;28;20214;-43
2023/12/27 09:45:33;;;;;;;0.00;0.00;;;21.50;52.50;;;;;;5089854;28;20221;-49
2023/12/27 09:48:06;;;;;;;0.00;0.00;;;21.40;52.50;;;;;;5090997;28;20264;-43
2023/12/27 09:50:38;;;;;;;0.00;0.00;;;21.40;52.50;;;;;;5091855;28;20653;-44
2023/12/27 09:53:12;;;;;;;0.00;0.00;;;21.40;52.40;;;;;;5090845;28;20189;-48
2023/12/27 09:55:41;;;;;;;0.10;0.10;;;21.40;52.50;;;;;;5091835;28;20214;-44
2023/12/27 09:58:12;;;;;;;0.00;0.00;;;21.40;52.50;;;;;;5090925;28;20574;-45
2023/12/27 10:00:46;;;;;;;0.00;0.00;;;21.40;52.50;;;;;;5091143;28;20194;-49
2023/12/27 10:03:24;;;;;;;0.10;0.10;;;21.40;52.50;;;;;;5090427;28;20255;-43
2023/12/27 10:06:01;;;;;;;0.00;0.00;;;21.40;52.50;;;;;;5091608;28;20217;-44
2023/12/27 10:08:32;;;;;;;0.00;0.00;;;21.40;52.40;;;;;;5090390;28;20208;-47
2023/12/27 10:11:03;;;;;;;0.03;0.03;;;21.40;52.50;;;;;;5090209;28;20192;-45
2023/12/27 10:13:37;;;;;;;0.00;0.00;;;21.40;52.50;;;;;;5090536;28;20653;-46
2023/12/27 10:16:09;;;;;;;0.00;0.00;;;21.40;52.50;;;;;;5089961;28;20210;-42
2023/12/27 10:18:40;;;;;;;0.10;0.10;;;21.40;52.50;;;;;;5090387;28;20194;-44
2023/12/27 10:21:11;;;;;;;0.00;0.00;;;21.40;52.50;;;;;;5090157;28;20198;-48
2023/12/27 10:23:42;;;;;;;0.00;0.00;;;21.40;52.50;;;;;;5090495;28;20225;-41
2023/12/27 10:26:12;;;;;;;0.00;0.00;;;21.40;52.50;;;;;;5090622;28;20345;-45
2023/12/27 10:28:44;;;;;;;0.10;0.10;;;21.40;52.50;;;;;;5091163;28;20198;-42
2023/12/27 10:31:17;;;;;;;0.10;0.10;;;21.30;52.40;;;;;;5090164;28;20194;-45
2023/12/27 10:33:48;;;;;;;0.10;0.10;;;21.40;52.50;;;;;;5089964;28;20198;-43
2023/12/27 10:36:20;;;;;;;0.00;0.00;;;21.40;52.40;;;;;;5088729;28;20226;-45
2023/12/27 10:38:51;;;;;;;0.00;0.00;;;21.30;52.40;;;;;;5090215;28;20417;-46
2023/12/27 10:41:24;;;;;;;0.00;0.00;;;21.40;52.50;;;;;;5090576;28;20212;-45
2023/12/27 10:43:57;;;;;;;0.00;0.00;;;21.30;52.40;;;;;;5090067;28;20698;-44
2023/12/27 10:46:30;;;;;;;0.00;0.00;;;21.30;52.40;;;;;;5090709;28;20573;-43
2023/12/27 10:49:04;;;;;;;0.10;0.10;;;21.30;52.40;;;;;;5090480;28;20217;-46
2023/12/27 10:51:38;;;;;;;0.00;0.00;;;21.30;52.40;;;;;;5091739;28;20284;-48
2023/12/27 10:54:09;;;;;;;0.08;0.08;;;21.30;52.40;;;;;;5091072;28;20573;-46
2023/12/27 10:56:41;;;;;;;0.03;0.03;;;21.30;52.40;;;;;;5094202;28;20210;-46
2023/12/27 10:59:12;;;;;;;0.00;0.00;;;21.30;52.40;;;;;;5093698;28;20186;-45
2023/12/27 11:01:46;;;;;;;0.00;0.00;;;21.30;52.40;;;;;;5094282;28;20208;-45
2023/12/27 11:04:19;;;;;;;0.00;0.00;;;21.30;52.40;;;;;;5094215;28;20225;-42
2023/12/27 11:06:53;;;;;;;0.00;0.00;;;21.30;52.40;;;;;;5094586;28;20712;-46
2023/12/27 11:09:28;;;;;;;0.00;0.00;;;21.30;52.40;;;;;;5094297;28;20198;-45
2023/12/27 11:12:01;;;;;;;0.03;0.03;;;21.30;52.40;;;;;;5094179;28;20243;-41
2023/12/27 11:14:33;;;;;;;0.00;0.00;;;21.30;52.40;;;;;;5093293;28;20197;-43
2023/12/27 11:17:10;;;;;;;0.10;0.10;;;21.30;52.40;;;;;;5094190;28;20197;-46
2023/12/27 11:19:42;;;;;;;0.00;0.00;;;21.30;52.40;;;;;;5094114;28;20204;-42
2023/12/27 11:22:12;;;;;;;0.00;0.00;;;21.20;52.30;;;;;;5094190;28;20571;-42
2023/12/27 11:24:44;;;;;;;0.00;0.00;;;21.30;52.40;;;;;;5094243;28;20221;-45
2023/12/27 11:27:19;;;;;;;0.00;0.00;;;21.20;52.30;;;;;;5094122;28;20271;-45
2023/12/27 11:29:50;;;;;;;0.00;0.00;;;21.30;52.40;;;;;;5093850;28;20204;-45
2023/12/27 11:32:23;;;;;;;0.10;0.10;;;21.20;52.40;;;;;;5093342;28;20194;-46
2023/12/27 11:34:55;;;;;;;0.08;0.08;;;21.20;52.40;;;;;;5093647;28;20229;-44
2023/12/27 11:37:26;;;;;;;0.00;0.00;;;21.20;52.30;;;;;;5094199;28;20202;-44
2023/12/27 11:39:58;;;;;;;0.10;0.10;;;21.20;52.40;;;;;;5093272;28;20201;-45
2023/12/27 11:42:30;;;;;;;0.10;0.10;;;21.20;52.30;;;;;;5093987;28;20198;-43
2023/12/27 11:45:01;;;;;;;0.00;0.00;;;21.20;52.30;;;;;;5092443;28;20237;-42
2023/12/27 11:47:36;;;;;;;0.10;0.10;;;21.20;52.40;;;;;;5093965;28;20676;-46
2023/12/27 11:50:30;;;;;;;0.00;0.00;;;21.20;52.40;;;;;;5093428;28;20240;-48
2023/12/27 11:53:01;;;;;;;0.00;0.00;;;21.20;52.40;;;;;;5083138;28;20550;-48
2023/12/27 11:55:35;;;;;;;0.00;0.00;;;21.20;52.30;;;;;;5093239;28;20218;-45
2023/12/27 11:58:06;;;;;;;0.00;0.00;;;21.20;52.30;;;;;;5093647;28;20727;-44
2023/12/27 12:00:37;;;;;;;0.10;0.10;;;21.20;52.40;;;;;;5093797;28;20205;-42
2023/12/27 12:03:17;;;;;;;0.00;0.00;;;21.20;52.30;;;;;;5092867;28;20198;-46
2023/12/27 12:06:09;;;;;;;0.05;0.05;;;21.20;52.40;;;;;;5093011;28;20221;-49
2023/12/27 12:08:44;;;;;;;0.10;0.10;;;21.20;52.30;;;;;;5093312;28;20190;-44
2023/12/27 12:11:18;;;;;;;0.10;0.10;;;21.20;52.30;;;;;;5093723;28;20654;-47
2023/12/27 12:13:49;;;;;;;0.00;0.00;;;21.10;52.30;;;;;;5092130;28;20202;-48
2023/12/27 12:16:20;;;;;;;0.00;0.00;;;21.10;52.30;;;;;;5091874;28;20698;-43
2023/12/27 12:18:53;;;;;;;0.00;0.00;;;21.10;52.30;;;;;;5092711;28;20197;-42
2023/12/27 12:21:24;;;;;;;0.00;0.00;;;21.10;52.30;;;;;;5092547;28;20186;-41
2023/12/27 12:23:54;;;;;;;0.10;0.10;;;21.10;52.90;;;;;;5092457;28;20214;-42
2023/12/27 12:26:25;;;;;;;0.10;0.10;;;21.10;52.30;;;;;;5093132;28;20214;-46
2023/12/27 12:29:00;;;;;;;0.08;0.08;;;21.10;52.30;;;;;;5092406;28;20692;-47
2023/12/27 12:31:30;;;;;;;0.10;0.10;;;21.10;52.30;;;;;;5092981;28;20568;-43
2023/12/27 12:34:03;;;;;;;0.00;0.00;;;21.10;52.30;;;;;;5093288;28;20213;-48
2023/12/27 12:36:34;;;;;;;0.10;0.10;;;21.10;52.30;;;;;;5091525;28;20623;-49
2023/12/27 12:39:05;;;;;;;0.08;0.08;;;21.10;52.30;;;;;;5071439;28;20191;-48
2023/12/27 12:41:36;;;;;;;0.10;0.10;;;21.10;52.30;;;;;;5072216;28;20191;-47
2023/12/27 12:44:07;;;;;;;0.10;0.10;;;21.10;52.30;;;;;;5071372;28;20230;-42
2023/12/27 12:46:38;;;;;;;0.00;0.00;;;21.10;52.30;;;;;;5075616;28;20488;-46
2023/12/27 12:49:11;;;;;;;0.00;0.00;;;21.10;52.30;;;;;;5092807;28;20209;-46
2023/12/27 12:51:42;;;;;;;0.03;0.03;;;21.10;52.30;;;;;;5093187;28;20194;-46
2023/12/27 12:54:12;;;;;;;0.10;0.10;;;21.10;52.30;;;;;;5089546;28;20186;-46
2023/12/27 12:56:43;;;;;;;0.00;0.00;;;21.10;52.30;;;;;;5092511;28;20210;-45
2023/12/27 12:59:14;;;;;;;0.10;0.10;;;21.10;52.80;;;;;;5090034;28;20552;-46
2023/12/27 13:01:45;;;;;;;0.08;0.08;;;21.10;52.30;;;;;;5092171;28;20550;-44
2023/12/27 13:04:17;;;;;;;0.00;0.00;;;21.00;52.20;;;;;;5090106;28;20210;-45
2023/12/27 13:06:50;;;;;;;0.00;0.00;;;21.10;52.30;;;;;;5092478;28;20216;-43
2023/12/27 13:09:21;;;;;;;0.00;0.00;;;21.10;52.30;;;;;;5092284;28;20213;-46